Time;durP1;ratioP1;P1;durP2;ratioP2;P2;SDS_P1;SDS_P2;PMS_P1;PMS_P2;Temp;Humidity;BMP_temperature;BMP_pressure;BME280_temperature;BME280_humidity;BME280_pressure;Samples;Min_cycle;Max_cycle;Signal;HPM_P1;HPM_P2
2022/07/21 17:01:36;;;;;;;9.65;2.22;;;23.30;79.50;;;;;;5103630;27;1341378;-50
2022/07/21 17:04:03;;;;;;;6.65;1.67;;;23.10;80.00;;;;;;5124125;28;20452;-54
2022/07/21 17:06:30;;;;;;;11.80;2.50;;;23.10;79.70;;;;;;5129942;28;20151;-54
2022/07/21 17:08:56;;;;;;;10.88;2.90;;;23.10;79.80;;;;;;5131014;27;20063;-53
2022/07/21 17:11:23;;;;;;;8.32;2.70;;;23.20;79.70;;;;;;5124183;28;20044;-49
2022/07/21 17:13:50;;;;;;;9.52;3.90;;;23.30;79.70;;;;;;5130921;27;20047;-49
2022/07/21 17:16:17;;;;;;;14.18;5.47;;;23.30;80.90;;;;;;5130762;28;20049;-53
2022/07/21 17:18:44;;;;;;;15.07;4.65;;;23.40;80.90;;;;;;5110559;28;20046;-50
2022/07/21 17:21:11;;;;;;;10.57;4.10;;;23.40;80.90;;;;;;5111096;28;20320;-49
2022/07/21 17:23:38;;;;;;;13.45;4.30;;;23.40;80.90;;;;;;5130859;28;20051;-45
2022/07/21 17:26:04;;;;;;;9.07;3.65;;;23.50;80.90;;;;;;5124641;28;20394;-48
2022/07/21 17:28:31;;;;;;;12.63;4.07;;;23.60;80.40;;;;;;5110777;28;20040;-52
2022/07/21 17:30:58;;;;;;;10.48;3.40;;;23.50;80.40;;;;;;5110944;28;20513;-48
2022/07/21 17:33:25;;;;;;;11.02;3.60;;;23.50;80.60;;;;;;5110910;28;20047;-50
2022/07/21 17:35:51;;;;;;;11.73;3.00;;;23.50;80.60;;;;;;5116917;28;20050;-47
2022/07/21 17:38:19;;;;;;;12.77;3.13;;;23.50;80.80;;;;;;5130381;27;20047;-50
2022/07/21 17:40:47;;;;;;;9.23;2.90;;;23.50;80.90;;;;;;5130529;27;20046;-49
2022/07/21 17:43:13;;;;;;;8.18;2.42;;;23.40;80.80;;;;;;5111164;28;20443;-53
2022/07/21 17:45:40;;;;;;;9.02;2.35;;;23.40;81.00;;;;;;5116305;28;20039;-54
2022/07/21 17:48:07;;;;;;;9.93;2.85;;;23.40;81.10;;;;;;5130138;28;20032;-51
2022/07/21 17:50:38;;;;;;;8.95;2.30;;;23.40;80.90;;;;;;5125293;27;20123;-48
2022/07/21 17:53:05;;;;;;;9.60;2.40;;;23.50;80.90;;;;;;5129972;28;20063;-53
2022/07/21 17:55:33;;;;;;;8.98;2.60;;;23.50;80.90;;;;;;5126574;28;20067;-51
2022/07/21 18:00:45;;;;;;;8.50;2.58;;;23.40;80.80;;;;;;5129009;28;20051;-46
2022/07/21 18:03:12;;;;;;;10.20;2.25;;;23.40;80.90;;;;;;5130023;28;20371;-47
2022/07/21 18:05:40;;;;;;;11.38;2.70;;;23.30;81.00;;;;;;5129860;28;20100;-44
2022/07/21 18:08:06;;;;;;;12.20;3.00;;;23.30;81.20;;;;;;5128104;27;20398;-50
2022/07/21 18:10:33;;;;;;;8.02;2.78;;;23.30;82.10;;;;;;5129870;27;20066;-46
2022/07/21 18:13:00;;;;;;;8.35;3.03;;;23.30;82.80;;;;;;5111562;28;20104;-47
2022/07/21 18:15:28;;;;;;;8.93;3.00;;;23.30;84.80;;;;;;5116138;28;20039;-50
2022/07/21 18:17:54;;;;;;;7.22;2.45;;;23.20;86.60;;;;;;5113055;28;20108;-47
2022/07/21 18:20:21;;;;;;;9.90;2.88;;;23.00;88.00;;;;;;5116138;28;20061;-48
2022/07/21 18:22:49;;;;;;;11.43;2.75;;;22.80;88.70;;;;;;5110450;28;20036;-43
2022/07/21 18:25:15;;;;;;;12.13;3.38;;;22.70;89.20;;;;;;5115709;28;20051;-48
2022/07/21 18:27:42;;;;;;;14.73;3.00;;;22.60;89.70;;;;;;5115878;28;20036;-47
2022/07/21 18:30:09;;;;;;;10.20;2.92;;;22.60;90.10;;;;;;5106947;28;20055;-49
2022/07/21 18:32:39;;;;;;;10.98;2.97;;;22.50;90.10;;;;;;5096373;28;20062;-48
2022/07/21 18:35:06;;;;;;;15.13;3.50;;;22.40;90.30;;;;;;5102694;28;20040;-48
2022/07/21 18:37:33;;;;;;;10.20;3.20;;;22.40;90.40;;;;;;5115848;28;20046;-48
2022/07/21 18:39:59;;;;;;;14.93;3.50;;;22.40;90.00;;;;;;5095687;28;20548;-49
2022/07/21 18:42:26;;;;;;;11.27;2.97;;;22.40;89.90;;;;;;5115996;28;20051;-47
2022/07/21 18:44:53;;;;;;;9.68;3.15;;;22.40;89.00;;;;;;5113639;28;20109;-47
2022/07/21 18:47:20;;;;;;;9.65;2.83;;;22.30;88.80;;;;;;5115398;28;20383;-47
2022/07/21 18:49:46;;;;;;;11.73;3.05;;;22.30;88.40;;;;;;5112448;28;20090;-47
2022/07/21 18:52:13;;;;;;;10.48;3.50;;;22.40;88.30;;;;;;5114963;28;20039;-47
2022/07/21 18:54:40;;;;;;;11.00;3.45;;;22.30;88.00;;;;;;5113524;28;20061;-45
2022/07/21 18:57:07;;;;;;;12.23;3.10;;;22.30;88.10;;;;;;5114377;28;20036;-50
2022/07/21 18:59:33;;;;;;;11.55;3.22;;;22.30;88.30;;;;;;5115082;28;20084;-49
2022/07/21 19:02:00;;;;;;;10.25;2.70;;;22.30;87.90;;;;;;5113906;28;20559;-51
2022/07/21 19:04:27;;;;;;;8.75;2.50;;;22.30;88.00;;;;;;5115326;28;20074;-46
2022/07/21 19:06:54;;;;;;;11.98;2.90;;;22.30;88.00;;;;;;5113008;28;20044;-48
2022/07/21 19:09:40;;;;;;;11.40;2.97;;;22.30;87.60;;;;;;5115180;28;20035;-45
2022/07/21 19:12:07;;;;;;;13.07;3.10;;;22.30;87.10;;;;;;5106739;28;20071;-50
2022/07/21 19:14:34;;;;;;;10.38;2.88;;;22.30;86.30;;;;;;5094248;28;20036;-50
2022/07/21 19:17:01;;;;;;;9.85;2.67;;;22.30;86.00;;;;;;5101972;28;20489;-51
2022/07/21 19:19:27;;;;;;;12.00;3.35;;;22.20;85.50;;;;;;5114679;28;20040;-48
2022/07/21 19:21:55;;;;;;;9.93;3.25;;;22.10;85.60;;;;;;5107924;28;20034;-46
2022/07/21 19:24:22;;;;;;;8.10;2.60;;;22.10;85.60;;;;;;5113778;28;20058;-44
2022/07/21 19:26:49;;;;;;;9.07;3.10;;;22.10;85.90;;;;;;5115074;28;20043;-49
2022/07/21 19:29:16;;;;;;;13.50;3.28;;;22.00;85.70;;;;;;5101055;28;20043;-49
2022/07/21 19:31:42;;;;;;;10.93;3.30;;;22.00;86.20;;;;;;5113138;28;20085;-48
2022/07/21 19:34:10;;;;;;;8.25;3.08;;;22.00;86.50;;;;;;5111235;28;20052;-45
2022/07/21 19:36:37;;;;;;;11.32;2.90;;;22.00;86.50;;;;;;5114375;28;20084;-47
2022/07/21 19:39:04;;;;;;;11.60;3.42;;;22.00;86.70;;;;;;5111514;28;20039;-45
2022/07/21 19:41:30;;;;;;;11.15;3.22;;;22.00;86.90;;;;;;5114583;28;20042;-46
2022/07/21 19:43:57;;;;;;;11.20;3.13;;;22.00;87.20;;;;;;5114362;28;20046;-45
2022/07/21 19:46:24;;;;;;;12.55;3.60;;;22.00;87.50;;;;;;5112532;28;20475;-47
2022/07/21 19:48:51;;;;;;;14.25;3.30;;;21.90;88.20;;;;;;5114284;28;20044;-50
2022/07/21 19:51:17;;;;;;;12.35;3.25;;;21.90;88.60;;;;;;5108724;28;20048;-51
2022/07/21 19:53:44;;;;;;;14.85;3.45;;;21.90;89.10;;;;;;5104549;28;20047;-51
2022/07/21 19:56:11;;;;;;;13.07;3.60;;;21.80;89.80;;;;;;5110874;28;20456;-45
2022/07/21 19:58:37;;;;;;;9.95;2.88;;;21.80;90.10;;;;;;5108203;28;20448;-50
2022/07/21 20:01:04;;;;;;;10.57;3.10;;;21.70;90.30;;;;;;5109474;28;20132;-44
2022/07/21 20:03:31;;;;;;;13.02;3.03;;;21.70;90.40;;;;;;5113850;28;20042;-53
2022/07/21 20:05:58;;;;;;;13.02;3.30;;;21.60;90.60;;;;;;5098803;28;20044;-49
2022/07/21 20:08:25;;;;;;;10.88;3.10;;;21.60;90.70;;;;;;5106142;28;20513;-51
2022/07/21 20:10:52;;;;;;;13.30;3.05;;;21.60;90.80;;;;;;5112703;28;20093;-48
2022/07/21 20:13:18;;;;;;;17.30;3.72;;;21.50;91.00;;;;;;5095952;28;20090;-45
2022/07/21 20:15:45;;;;;;;15.70;4.05;;;21.50;91.00;;;;;;5103131;28;20032;-48
2022/07/21 20:18:12;;;;;;;13.65;3.50;;;21.50;91.10;;;;;;5106866;28;20043;-49
2022/07/21 20:20:39;;;;;;;13.02;3.92;;;21.50;91.10;;;;;;5106032;28;20039;-50
2022/07/21 20:23:05;;;;;;;16.42;4.10;;;21.50;91.30;;;;;;5112043;28;20429;-46
2022/07/21 20:25:32;;;;;;;14.82;3.30;;;21.50;91.20;;;;;;5108867;28;20126;-46
2022/07/21 20:27:59;;;;;;;14.93;3.50;;;21.50;91.20;;;;;;5111059;28;20039;-48
2022/07/21 20:30:26;;;;;;;13.60;3.58;;;21.50;91.10;;;;;;5108236;28;20035;-45
2022/07/21 20:32:53;;;;;;;14.43;2.92;;;21.50;91.20;;;;;;5107556;28;20059;-52
2022/07/21 20:35:20;;;;;;;11.88;2.90;;;21.40;91.20;;;;;;5112644;28;20065;-50
2022/07/21 20:37:47;;;;;;;10.65;2.95;;;21.40;91.30;;;;;;5109097;28;20051;-50
2022/07/21 20:40:13;;;;;;;12.75;3.42;;;21.30;91.40;;;;;;5094113;28;20113;-45
2022/07/21 20:42:56;;;;;;;12.63;3.50;;;21.30;91.50;;;;;;5109683;28;20039;-49
2022/07/21 20:45:23;;;;;;;11.90;3.05;;;21.30;91.50;;;;;;5110373;28;20478;-45
2022/07/21 20:47:50;;;;;;;15.13;3.38;;;21.30;91.50;;;;;;5101039;28;20032;-49
2022/07/21 20:50:16;;;;;;;13.00;2.85;;;21.20;91.40;;;;;;5108339;28;20039;-48
2022/07/21 20:52:43;;;;;;;10.60;3.28;;;21.20;91.30;;;;;;5107557;28;20405;-49
2022/07/21 20:55:20;;;;;;;13.55;3.22;;;21.20;91.10;;;;;;5101541;28;20028;-51
2022/07/21 20:57:56;;;;;;;14.18;3.00;;;21.20;90.90;;;;;;5111275;28;20042;-49
2022/07/21 21:00:24;;;;;;;9.85;2.50;;;21.10;90.80;;;;;;5093408;28;20044;-49
2022/07/21 21:02:51;;;;;;;13.80;2.30;;;21.10;90.80;;;;;;5094621;28;20032;-51
2022/07/21 21:05:17;;;;;;;10.85;2.53;;;21.00;90.80;;;;;;5101747;28;20036;-50
2022/07/21 21:07:44;;;;;;;14.43;2.88;;;21.00;90.80;;;;;;5099200;28;20394;-47
2022/07/21 21:10:11;;;;;;;11.02;2.30;;;21.00;90.90;;;;;;5103683;28;20466;-44
2022/07/21 21:12:38;;;;;;;13.02;2.53;;;21.00;90.80;;;;;;5102636;28;20095;-48
2022/07/21 21:15:04;;;;;;;10.63;2.17;;;20.90;90.90;;;;;;5108603;28;20051;-50
2022/07/21 21:17:32;;;;;;;10.73;2.25;;;20.80;90.90;;;;;;5111336;28;20115;-55
2022/07/21 21:19:59;;;;;;;9.70;2.50;;;20.80;90.90;;;;;;5095195;28;20094;-52
2022/07/21 21:22:26;;;;;;;14.98;3.20;;;20.80;90.90;;;;;;5097300;28;20115;-49
2022/07/21 21:24:54;;;;;;;9.23;2.20;;;20.90;90.90;;;;;;5099522;28;20044;-51
2022/07/21 21:27:21;;;;;;;8.95;2.78;;;20.90;90.90;;;;;;5093234;28;20040;-51
2022/07/21 21:29:47;;;;;;;11.70;2.25;;;20.90;90.90;;;;;;5103694;28;20086;-48
2022/07/21 21:32:14;;;;;;;13.15;3.10;;;20.90;90.80;;;;;;5093697;28;20110;-48
2022/07/21 21:34:41;;;;;;;10.38;2.75;;;20.90;90.80;;;;;;5100980;28;20036;-55
2022/07/21 21:37:07;;;;;;;8.30;2.10;;;20.90;90.80;;;;;;5103273;28;20036;-47
2022/07/21 21:39:34;;;;;;;11.38;2.40;;;20.80;90.80;;;;;;5100490;28;20044;-47
2022/07/21 21:42:04;;;;;;;10.60;2.33;;;20.80;90.80;;;;;;5101796;28;20138;-49
2022/07/21 21:44:30;;;;;;;9.50;2.38;;;20.80;90.80;;;;;;5100835;28;20040;-48
2022/07/21 21:46:57;;;;;;;9.45;2.17;;;20.80;90.80;;;;;;5106256;28;20036;-50
2022/07/21 21:49:24;;;;;;;11.60;2.72;;;20.80;90.80;;;;;;5108480;28;20032;-48
